createdAt,value
2019-04-05T00:02:08.365Z,86.14
2019-04-05T00:04:37.081Z,86.21
2019-04-05T00:07:05.789Z,84.58
2019-04-05T00:09:34.538Z,84.15
2019-04-05T00:12:03.246Z,84.06
2019-04-05T00:14:31.958Z,83.55
2019-04-05T00:17:00.907Z,83.55
2019-04-05T00:19:29.633Z,84.11
2019-04-05T00:21:58.339Z,84.71
2019-04-05T00:24:27.208Z,84.82
2019-04-05T00:26:55.920Z,85.21
2019-04-05T00:29:24.640Z,84.96
2019-04-05T00:31:53.481Z,85.60
2019-04-05T00:34:23.206Z,86.60
2019-04-05T00:36:51.925Z,87.10
2019-04-05T00:39:20.688Z,87.70
2019-04-05T00:41:49.421Z,88.28
2019-04-05T00:44:18.143Z,88.58
2019-04-05T00:46:47.022Z,88.26
2019-04-05T00:49:15.730Z,88.13
2019-04-05T00:51:44.455Z,88.69
2019-04-05T00:54:13.323Z,89.42
2019-04-05T00:56:42.036Z,89.80
2019-04-05T00:59:10.786Z,89.80
2019-04-05T01:01:39.541Z,90.02
2019-04-05T01:04:08.260Z,90.21
2019-04-05T01:06:36.977Z,90.34
2019-04-05T01:09:08.124Z,90.36
2019-04-05T01:11:36.936Z,90.43
2019-04-05T01:14:05.660Z,90.31
2019-04-05T01:16:34.710Z,90.27
2019-04-05T01:19:04.122Z,90.58
2019-04-05T01:21:35.935Z,91.07
2019-04-05T01:24:05.587Z,91.39
2019-04-05T01:26:36.411Z,91.33
2019-04-05T01:29:05.132Z,91.25
2019-04-05T01:31:34.058Z,90.92
2019-04-05T01:34:05.396Z,91.43
2019-04-05T01:36:33.331Z,91.68
2019-04-05T01:39:02.100Z,91.68
2019-04-05T01:41:30.916Z,91.91
2019-04-05T01:43:59.647Z,91.38
2019-04-05T01:46:28.498Z,91.10
2019-04-05T01:48:57.208Z,91.22
2019-04-05T01:51:25.935Z,91.50
2019-04-05T01:53:54.687Z,91.54
2019-04-05T01:56:23.502Z,91.90
2019-04-05T01:58:52.223Z,90.82
2019-04-05T02:01:21.427Z,90.85
2019-04-05T02:03:50.152Z,91.10
2019-04-05T02:06:18.871Z,91.34
2019-04-05T02:08:48.433Z,91.27
2019-04-05T02:11:17.150Z,90.76
2019-04-05T02:13:45.966Z,90.78
2019-04-05T02:16:14.848Z,91.11
2019-04-05T02:18:43.566Z,91.50
2019-04-05T02:21:12.285Z,92.33
2019-04-05T02:23:41.258Z,92.50
2019-04-05T02:26:10.092Z,92.62
2019-04-05T02:28:38.827Z,92.86
2019-04-05T02:31:07.611Z,93.28
2019-04-05T02:33:36.339Z,93.30
2019-04-05T02:36:05.060Z,93.33
2019-04-05T02:38:34.041Z,93.42
2019-04-05T02:41:04.162Z,93.28
2019-04-05T02:43:34.992Z,93.27
2019-04-05T02:46:05.222Z,93.40
2019-04-05T02:48:36.713Z,92.99
2019-04-05T02:51:07.137Z,92.96
2019-04-05T02:53:37.503Z,92.96
2019-04-05T02:56:07.320Z,92.81
2019-04-05T02:58:38.526Z,92.14
2019-04-05T03:01:07.647Z,91.21
2019-04-05T03:03:36.602Z,90.10
2019-04-05T03:06:07.428Z,90.54
2019-04-05T03:08:37.108Z,91.08
2019-04-05T03:11:08.973Z,91.69
2019-04-05T03:13:40.692Z,92.09
2019-04-05T03:16:40.246Z,91.49
2019-04-05T03:19:06.895Z,91.35
2019-04-05T03:21:38.529Z,91.38
2019-04-05T03:24:09.702Z,91.00
2019-04-05T03:26:41.398Z,91.45
2019-04-05T03:29:11.111Z,91.89
2019-04-05T03:31:40.146Z,92.23
2019-04-05T03:34:09.138Z,92.62
2019-04-05T03:36:38.501Z,92.89
2019-04-05T03:39:07.714Z,93.20
2019-04-05T03:41:36.893Z,93.35
2019-04-05T03:44:06.415Z,93.20
2019-04-05T03:46:35.254Z,92.79
2019-04-05T03:49:06.186Z,92.83
2019-04-05T03:51:35.310Z,92.98
2019-04-05T03:54:05.030Z,93.02
2019-04-05T03:56:37.744Z,92.39
2019-04-05T03:59:04.953Z,93.03
2019-04-05T04:01:33.672Z,93.98
2019-04-05T04:04:04.277Z,94.16
2019-04-05T04:06:33.008Z,94.00
2019-04-05T04:09:02.132Z,93.80
2019-04-05T04:11:30.919Z,94.10
2019-04-05T04:14:00.837Z,94.29
2019-04-05T04:16:29.970Z,94.26
2019-04-05T04:19:00.365Z,93.81
2019-04-05T04:21:34.610Z,93.88
2019-04-05T04:24:04.141Z,93.77
2019-04-05T04:26:33.667Z,94.09
2019-04-05T04:29:02.481Z,93.94
2019-04-05T04:31:31.692Z,94.00
2019-04-05T04:34:00.658Z,94.25
2019-04-05T04:36:32.647Z,93.93
2019-04-05T04:39:01.471Z,93.59
2019-04-05T04:41:32.096Z,93.49
2019-04-05T04:44:01.113Z,93.09
2019-04-05T04:46:30.136Z,93.00
2019-04-05T04:48:59.321Z,92.88
2019-04-05T04:51:28.474Z,92.27
2019-04-05T04:53:57.507Z,91.80
2019-04-05T04:56:26.470Z,91.56
2019-04-05T04:58:55.471Z,91.00
2019-04-05T05:01:24.594Z,90.64
2019-04-05T05:03:53.400Z,89.71
2019-04-05T05:06:22.118Z,88.59
2019-04-05T05:08:51.092Z,86.75
2019-04-05T05:11:20.080Z,85.64
2019-04-05T05:13:48.813Z,84.76
2019-04-05T05:16:17.837Z,83.97
2019-04-05T05:18:46.704Z,83.34
2019-04-05T05:21:16.102Z,82.99
2019-04-05T05:23:44.925Z,81.97
2019-04-05T05:26:13.905Z,80.95
2019-04-05T05:28:45.601Z,80.62
2019-04-05T05:31:14.417Z,79.42
2019-04-05T05:33:43.289Z,78.37
2019-04-05T05:36:12.106Z,78.62
2019-04-05T05:38:40.925Z,78.84
2019-04-05T05:41:10.675Z,77.89
2019-04-05T05:43:39.409Z,75.01
2019-04-05T05:46:08.132Z,73.84
2019-04-05T05:48:37.300Z,72.15
2019-04-05T05:51:06.024Z,71.21
2019-04-05T05:53:34.766Z,70.49
2019-04-05T05:56:03.644Z,69.25
2019-04-05T05:58:32.360Z,68.03
2019-04-05T06:01:01.075Z,67.59
2019-04-05T06:03:29.944Z,66.58
2019-04-05T06:06:04.641Z,68.24
2019-04-05T06:08:29.458Z,69.54
2019-04-05T06:10:58.433Z,70.31
2019-04-05T06:13:27.163Z,72.24
2019-04-05T06:15:55.885Z,70.28
2019-04-05T06:18:24.747Z,68.99
2019-04-05T06:20:53.458Z,68.38
2019-04-05T06:23:32.985Z,69.62
2019-04-05T06:25:52.681Z,66.38
2019-04-05T06:28:21.393Z,66.87
2019-04-05T06:30:50.109Z,68.85
2019-04-05T06:33:30.866Z,68.58
2019-04-05T06:35:49.340Z,69.48
2019-04-05T06:38:18.081Z,70.52
2019-04-05T06:40:46.822Z,68.66
2019-04-05T06:43:15.550Z,67.57
2019-04-05T06:45:44.299Z,64.29
2019-04-05T06:48:19.387Z,64.36
2019-04-05T06:50:43.692Z,62.15
2019-04-05T06:53:12.418Z,62.54
2019-04-05T06:55:41.264Z,63.33
2019-04-05T06:58:10.495Z,59.18
2019-04-05T07:00:39.493Z,61.25
2019-04-05T07:03:08.508Z,61.80
2019-04-05T07:05:37.259Z,58.79
2019-04-05T07:08:05.976Z,57.67
2019-04-05T07:10:34.824Z,58.11
2019-04-05T07:13:03.674Z,59.21
2019-04-05T07:15:32.436Z,58.51
2019-04-05T07:18:01.226Z,58.25
2019-04-05T07:20:29.941Z,59.35
2019-04-05T07:22:58.662Z,58.58
2019-04-05T07:25:29.342Z,58.38
2019-04-05T07:27:58.150Z,59.05
2019-04-05T07:30:28.866Z,60.22
2019-04-05T07:32:57.493Z,59.38
2019-04-05T07:35:33.373Z,59.41
2019-04-05T07:37:56.652Z,58.94
2019-04-05T07:40:26.193Z,61.70
2019-04-05T07:42:54.924Z,61.17
2019-04-05T07:45:23.665Z,61.67
2019-04-05T07:47:52.392Z,59.28
2019-04-05T07:50:21.115Z,59.40
2019-04-05T07:52:49.844Z,59.65
2019-04-05T07:55:18.604Z,57.35
2019-04-05T07:57:47.327Z,58.12
2019-04-05T08:00:41.621Z,57.20
2019-04-05T08:03:10.530Z,57.59
2019-04-05T08:05:39.649Z,56.83
2019-04-05T08:08:12.313Z,57.08
2019-04-05T08:10:41.236Z,56.48
2019-04-05T08:13:11.363Z,56.82
2019-04-05T08:15:40.816Z,56.03
2019-04-05T08:18:09.536Z,56.10
2019-04-05T08:20:38.251Z,54.67
2019-04-05T08:23:07.017Z,54.42
2019-04-05T08:25:35.755Z,54.54
2019-04-05T08:28:06.674Z,55.68
2019-04-05T08:30:35.170Z,55.78
2019-04-05T08:33:03.903Z,56.06
2019-04-05T08:35:32.740Z,55.28
2019-04-05T08:38:01.497Z,54.27
2019-04-05T08:40:30.229Z,55.56
2019-04-05T08:42:58.961Z,53.32
2019-04-05T08:45:27.766Z,53.40
2019-04-05T08:47:56.494Z,55.30
2019-04-05T08:50:25.217Z,53.85
2019-04-05T08:52:54.055Z,54.99
2019-04-05T08:55:22.806Z,54.69
2019-04-05T08:57:52.609Z,54.67
2019-04-05T09:00:21.573Z,53.57
2019-04-05T09:02:51.806Z,52.94
2019-04-05T09:05:20.655Z,51.51
2019-04-05T09:07:49.619Z,52.14
2019-04-05T09:10:18.366Z,51.99
2019-04-05T09:12:47.111Z,51.39
2019-04-05T09:15:16.275Z,49.41
2019-04-05T09:17:45.066Z,51.05
2019-04-05T09:20:13.896Z,52.28
2019-04-05T09:22:42.874Z,51.76
2019-04-05T09:25:13.027Z,50.61
2019-04-05T09:27:41.744Z,50.79
2019-04-05T09:30:12.210Z,53.17
2019-04-05T09:32:40.932Z,52.66
2019-04-05T09:35:09.855Z,52.41
2019-04-05T09:37:38.731Z,52.40
2019-04-05T09:40:07.658Z,50.30
2019-04-05T09:42:36.376Z,50.68
2019-04-05T09:45:07.706Z,51.10
2019-04-05T09:47:36.448Z,47.94
2019-04-05T09:50:06.809Z,48.70
2019-04-05T09:52:35.562Z,48.69
2019-04-05T09:55:05.475Z,49.09
2019-04-05T09:57:34.198Z,48.18
2019-04-05T10:00:04.489Z,48.63
2019-04-05T10:02:33.247Z,49.41
2019-04-05T10:05:01.966Z,50.38
2019-04-05T10:07:31.611Z,49.49
2019-04-05T10:10:00.349Z,49.34
2019-04-05T10:12:29.073Z,49.15
2019-04-05T10:14:57.916Z,48.94
2019-04-05T10:17:26.647Z,48.11
2019-04-05T10:19:55.393Z,49.46
2019-04-05T10:22:24.156Z,47.48
2019-04-05T10:24:52.894Z,48.99
2019-04-05T10:27:23.035Z,47.61
2019-04-05T10:29:52.068Z,45.86
2019-04-05T10:32:21.186Z,44.38
2019-04-05T10:34:49.918Z,42.50
2019-04-05T10:37:18.684Z,42.66
2019-04-05T10:39:47.415Z,44.06
2019-04-05T10:42:30.796Z,44.37
2019-04-05T10:44:59.648Z,44.62
2019-04-05T10:47:28.761Z,44.21
2019-04-05T10:50:03.298Z,44.22
2019-04-05T10:52:28.179Z,44.18
2019-04-05T10:54:58.048Z,43.06
2019-04-05T10:57:27.075Z,42.29
2019-04-05T10:59:55.806Z,42.68
2019-04-05T11:02:24.541Z,43.47
2019-04-05T11:04:53.316Z,42.28
2019-04-05T11:07:22.061Z,42.93
2019-04-05T11:09:53.237Z,43.99
2019-04-05T11:12:21.376Z,42.28
2019-04-05T11:14:50.108Z,42.15
2019-04-05T11:17:18.812Z,42.87
2019-04-05T11:19:47.689Z,43.03
2019-04-05T11:22:20.102Z,43.15
2019-04-05T11:24:46.917Z,44.42
2019-04-05T11:27:16.470Z,43.49
2019-04-05T11:29:45.203Z,42.16
2019-04-05T11:32:31.917Z,42.28
2019-04-05T11:35:00.746Z,41.23
2019-04-05T11:37:29.863Z,42.24
2019-04-05T11:39:59.924Z,41.25
2019-04-05T11:42:32.939Z,41.88
2019-04-05T11:45:02.802Z,40.45
2019-04-05T11:47:32.397Z,41.23
2019-04-05T11:50:02.624Z,42.71
2019-04-05T11:52:31.448Z,41.07
2019-04-05T11:55:00.248Z,41.51
2019-04-05T11:57:28.966Z,40.64
2019-04-05T11:59:57.695Z,40.29
2019-04-05T12:02:28.054Z,39.47
2019-04-05T12:04:58.349Z,38.61
2019-04-05T12:07:27.513Z,37.67
2019-04-05T12:09:57.391Z,41.46
2019-04-05T12:12:27.703Z,36.74
2019-04-05T12:14:57.622Z,35.39
2019-04-05T12:17:26.386Z,34.55
2019-04-05T12:19:55.113Z,33.28
2019-04-05T12:22:23.836Z,32.71
2019-04-05T12:24:53.852Z,32.48
2019-04-05T12:27:22.570Z,32.06
2019-04-05T12:29:51.292Z,33.31
2019-04-05T12:32:33.033Z,32.64
2019-04-05T12:34:52.671Z,32.99
2019-04-05T12:37:22.544Z,31.60
2019-04-05T12:39:51.502Z,32.69
2019-04-05T12:42:20.245Z,32.08
2019-04-05T12:44:48.976Z,32.55
2019-04-05T12:47:17.729Z,33.45
2019-04-05T12:49:46.443Z,31.32
2019-04-05T12:52:22.611Z,32.13
2019-04-05T12:54:45.693Z,31.57
2019-04-05T12:57:14.418Z,31.51
2019-04-05T12:59:43.143Z,32.37
2019-04-05T13:02:14.086Z,31.61
2019-04-05T13:04:42.446Z,31.77
2019-04-05T13:07:12.646Z,31.76
2019-04-05T13:09:41.522Z,31.37
2019-04-05T13:12:10.328Z,31.60
2019-04-05T13:14:39.044Z,32.36
2019-04-05T13:17:07.939Z,31.38
2019-04-05T13:19:36.642Z,32.06
2019-04-05T13:22:05.358Z,32.68
2019-04-05T13:24:34.241Z,32.40
2019-04-05T13:27:03.069Z,32.85
2019-04-05T13:29:31.756Z,31.49
2019-04-05T13:32:00.543Z,30.85
2019-04-05T13:34:29.259Z,31.66
2019-04-05T13:36:59.331Z,31.91
2019-04-05T13:39:29.688Z,30.94
2019-04-05T13:41:59.454Z,30.94
2019-04-05T13:44:31.889Z,30.99
2019-04-05T13:47:00.142Z,31.56
2019-04-05T13:49:28.860Z,33.11
2019-04-05T13:51:57.582Z,34.41
2019-04-05T13:54:26.337Z,33.79
2019-04-05T13:56:55.053Z,33.97
2019-04-05T13:59:23.774Z,33.61
2019-04-05T14:02:05.360Z,34.18
2019-04-05T14:04:23.344Z,33.28
2019-04-05T14:06:53.722Z,32.75
2019-04-05T14:09:22.581Z,32.55
2019-04-05T14:11:51.301Z,31.97
2019-04-05T14:14:20.010Z,32.02
2019-04-05T14:16:48.886Z,31.96
2019-04-05T14:19:19.150Z,32.32
2019-04-05T14:21:48.098Z,32.47
2019-04-05T14:24:16.874Z,32.34
2019-04-05T14:26:45.608Z,31.96
2019-04-05T14:29:14.361Z,32.09
2019-04-05T14:31:43.247Z,31.96
2019-04-05T14:34:11.970Z,32.45
2019-04-05T14:36:40.905Z,33.61
2019-04-05T14:39:11.906Z,32.78
2019-04-05T14:41:40.624Z,33.77
2019-04-05T14:44:09.350Z,33.70
2019-04-05T14:46:38.637Z,34.02
2019-04-05T14:49:07.325Z,35.34
2019-04-05T14:51:36.044Z,34.67
2019-04-05T14:54:05.049Z,34.85
2019-04-05T14:56:33.754Z,33.82
2019-04-05T14:59:02.470Z,34.33
2019-04-05T15:01:31.255Z,34.32
2019-04-05T15:03:59.984Z,35.35
2019-04-05T15:06:28.704Z,34.69
2019-04-05T15:08:58.443Z,34.61
2019-04-05T15:11:29.447Z,34.76
2019-04-05T15:13:57.605Z,34.89
2019-04-05T15:16:26.370Z,34.89
2019-04-05T15:18:55.084Z,34.75
2019-04-05T15:21:23.804Z,34.72
2019-04-05T15:23:52.567Z,35.07
2019-04-05T15:26:21.496Z,35.42
2019-04-05T15:28:50.289Z,36.06
2019-04-05T15:31:19.146Z,35.57
2019-04-05T15:33:47.865Z,35.98
2019-04-05T15:36:16.587Z,36.26
2019-04-05T15:38:45.458Z,36.41
2019-04-05T15:41:14.179Z,36.06
2019-04-05T15:43:42.898Z,35.61
2019-04-05T15:46:11.656Z,35.57
2019-04-05T15:48:40.377Z,36.83
2019-04-05T15:51:09.099Z,36.03
2019-04-05T15:53:37.856Z,36.40
2019-04-05T15:56:06.587Z,35.68
2019-04-05T15:58:35.316Z,35.78
2019-04-05T16:01:04.940Z,36.94
2019-04-05T16:03:36.769Z,36.93
2019-04-05T16:06:04.659Z,36.90
2019-04-05T16:08:33.440Z,37.18
2019-04-05T16:11:03.259Z,37.29
2019-04-05T16:13:31.985Z,37.67
2019-04-05T16:16:01.785Z,36.90
2019-04-05T16:18:30.494Z,37.51
2019-04-05T16:20:59.228Z,37.48
2019-04-05T16:23:28.107Z,37.98
2019-04-05T16:25:56.842Z,38.36
2019-04-05T16:28:25.577Z,38.01
2019-04-05T16:30:54.432Z,38.70
2019-04-05T16:33:23.189Z,38.98
2019-04-05T16:35:51.914Z,39.35
2019-04-05T16:38:20.738Z,39.35
2019-04-05T16:40:49.453Z,39.40
2019-04-05T16:43:18.194Z,39.55
2019-04-05T16:45:47.844Z,40.34
2019-04-05T16:48:16.571Z,40.23
2019-04-05T16:50:45.287Z,39.80
2019-04-05T16:53:14.085Z,39.58
2019-04-05T16:55:42.839Z,40.05
2019-04-05T16:58:11.556Z,39.84
2019-04-05T17:00:40.472Z,40.55
2019-04-05T17:03:09.196Z,40.38
2019-04-05T17:05:37.954Z,40.80
2019-04-05T17:08:06.728Z,41.21
2019-04-05T17:10:35.458Z,41.71
2019-04-05T17:13:04.188Z,41.75
2019-04-05T17:15:32.942Z,42.26
2019-04-05T17:18:01.667Z,42.46
2019-04-05T17:20:30.392Z,41.96
2019-04-05T17:23:00.181Z,42.32
2019-04-05T17:25:28.909Z,42.19
2019-04-05T17:27:57.639Z,42.10
2019-04-05T17:30:26.589Z,41.70
2019-04-05T17:32:55.300Z,41.93
2019-04-05T17:35:24.130Z,41.80
2019-04-05T17:37:53.010Z,41.74
2019-04-05T17:40:21.729Z,41.62
2019-04-05T17:42:50.455Z,41.44
2019-04-05T17:45:19.319Z,41.40
2019-04-05T17:47:48.045Z,41.21
2019-04-05T17:50:19.673Z,41.45
2019-04-05T17:52:48.456Z,41.03
2019-04-05T17:55:17.182Z,41.53
2019-04-05T17:57:45.904Z,42.49
2019-04-05T18:00:17.386Z,45.29
2019-04-05T18:02:46.111Z,46.38
2019-04-05T18:05:14.835Z,47.80
2019-04-05T18:07:43.624Z,49.38
2019-04-05T18:10:12.444Z,51.27
2019-04-05T18:12:41.163Z,53.40
2019-04-05T18:15:11.421Z,54.80
2019-04-05T18:17:40.149Z,55.36
2019-04-05T18:20:09.910Z,55.43
2019-04-05T18:22:38.938Z,55.82
2019-04-05T18:25:07.759Z,56.27
2019-04-05T18:27:36.484Z,57.25
2019-04-05T18:30:07.353Z,58.88
2019-04-05T18:32:36.065Z,59.59
2019-04-05T18:35:06.294Z,60.42
2019-04-05T18:37:35.476Z,60.64
2019-04-05T18:40:06.017Z,60.79
2019-04-05T18:42:34.745Z,61.26
2019-04-05T18:45:03.498Z,61.37
2019-04-05T18:47:32.225Z,61.80
2019-04-05T18:50:03.235Z,61.94
2019-04-05T18:52:31.442Z,61.97
2019-04-05T18:55:00.166Z,62.37
2019-04-05T18:57:33.372Z,62.07
2019-04-05T19:00:04.355Z,62.60
2019-04-05T19:02:33.078Z,62.81
2019-04-05T19:05:01.811Z,62.89
2019-04-05T19:07:30.596Z,63.02
2019-04-05T19:09:59.329Z,63.47
2019-04-05T19:12:28.073Z,63.79
2019-04-05T19:14:57.833Z,64.03
2019-04-05T19:17:26.722Z,64.93
2019-04-05T19:19:55.442Z,64.75
2019-04-05T19:22:24.319Z,65.29
2019-04-05T19:24:53.039Z,65.51
2019-04-05T19:27:21.762Z,65.89
2019-04-05T19:29:50.646Z,66.51
2019-04-05T19:49:52.766Z,66.28
2019-04-05T19:52:21.641Z,66.33
2019-04-05T19:54:50.355Z,65.95
2019-04-05T19:57:19.083Z,65.54
2019-04-05T19:59:47.977Z,66.17
2019-04-05T20:02:16.704Z,66.22
2019-04-05T20:04:45.426Z,66.30
2019-04-05T20:07:14.169Z,66.23
2019-04-05T20:09:42.888Z,66.44
2019-04-05T20:12:11.610Z,66.27
2019-04-05T20:14:41.499Z,66.54
2019-04-05T20:17:10.224Z,67.02
2019-04-05T20:19:39.047Z,67.00
2019-04-05T20:22:07.795Z,66.79
2019-04-05T20:24:36.523Z,67.38
2019-04-05T20:27:05.238Z,67.35
2019-04-05T20:29:34.112Z,67.45
2019-04-05T20:32:02.834Z,67.69
2019-04-05T20:34:32.680Z,68.33
2019-04-05T20:37:02.271Z,68.50
2019-04-05T20:39:30.987Z,68.90
2019-04-05T20:41:59.714Z,68.51
2019-04-05T20:44:29.362Z,68.87
2019-04-05T20:46:58.086Z,68.70
2019-04-05T20:49:26.803Z,69.26
2019-04-05T20:51:55.573Z,70.10
2019-04-05T20:54:25.037Z,71.62
2019-04-05T20:56:53.910Z,71.78
2019-04-05T20:59:22.703Z,72.05
2019-04-05T21:01:51.428Z,71.54
2019-04-05T21:04:20.152Z,71.98
2019-04-05T21:06:48.958Z,72.05
2019-04-05T21:09:17.673Z,71.99
2019-04-05T21:11:46.405Z,71.95
2019-04-05T21:14:15.179Z,72.04
2019-04-05T21:16:43.889Z,70.69
2019-04-05T21:19:12.606Z,69.96
2019-04-05T21:21:41.388Z,70.43
2019-04-05T21:24:10.101Z,70.65
2019-04-05T21:26:38.823Z,71.33
2019-04-05T21:29:07.588Z,71.50
2019-04-05T21:31:36.308Z,71.61
2019-04-05T21:34:05.038Z,71.89
2019-04-05T21:36:33.800Z,71.47
2019-04-05T21:39:02.512Z,71.71
2019-04-05T21:41:31.239Z,72.14
2019-04-05T21:44:00.155Z,72.71
2019-04-05T21:46:28.877Z,73.10
2019-04-05T21:48:57.608Z,73.20
2019-04-05T21:51:26.455Z,72.84
2019-04-05T21:53:55.180Z,72.85
2019-04-05T21:56:23.889Z,73.14
2019-04-05T21:58:52.773Z,72.91
2019-04-05T22:01:22.393Z,73.87
2019-04-05T22:03:51.121Z,74.05
2019-04-05T22:06:19.967Z,74.39
2019-04-05T22:08:48.689Z,74.40
2019-04-05T22:11:17.910Z,74.22
2019-04-05T22:13:46.751Z,74.26
2019-04-05T22:16:15.716Z,74.36
2019-04-05T22:18:44.424Z,75.46
2019-04-05T22:21:13.187Z,75.93
2019-04-05T22:23:41.913Z,76.36
2019-04-05T22:26:10.638Z,76.62
2019-04-05T22:28:40.309Z,76.96
2019-04-05T22:31:09.022Z,77.55
2019-04-05T22:33:37.743Z,78.15
2019-04-05T22:36:06.622Z,78.02
2019-04-05T22:38:35.353Z,77.57
2019-04-05T22:41:04.073Z,77.30
2019-04-05T22:43:32.829Z,76.92
2019-04-05T22:46:01.602Z,76.82
2019-04-05T22:48:30.345Z,75.54
2019-04-05T22:50:59.905Z,75.52
2019-04-05T22:53:28.770Z,75.49
2019-04-05T22:55:57.492Z,76.27
2019-04-05T22:58:26.277Z,76.10
2019-04-05T23:00:55.003Z,74.38
2019-04-05T23:03:23.725Z,74.46
2019-04-05T23:05:52.659Z,74.44
2019-04-05T23:08:21.379Z,73.96
2019-04-05T23:10:50.106Z,73.79
2019-04-05T23:13:19.108Z,73.45
2019-04-05T23:15:47.822Z,74.09
2019-04-05T23:18:16.541Z,75.11
2019-04-05T23:20:45.426Z,75.54
2019-04-05T23:23:14.143Z,76.11
2019-04-05T23:25:42.857Z,76.16
2019-04-05T23:28:11.779Z,76.38
2019-04-05T23:30:40.485Z,76.25
2019-04-05T23:33:09.207Z,76.06
2019-04-05T23:35:37.996Z,75.70
2019-04-05T23:38:06.718Z,75.64
2019-04-05T23:40:35.442Z,75.49
2019-04-05T23:43:04.320Z,75.81
2019-04-05T23:45:33.135Z,75.61
2019-04-05T23:48:01.860Z,75.46
2019-04-05T23:50:31.435Z,75.36
2019-04-05T23:53:00.156Z,76.18
2019-04-05T23:55:33.538Z,77.34
2019-04-05T23:58:00.133Z,77.97
